Time;durP1;ratioP1;P1;durP2;ratioP2;P2;SDS_P1;SDS_P2;PMS_P1;PMS_P2;Temp;Humidity;BMP_temperature;BMP_pressure;BME280_temperature;BME280_humidity;BME280_pressure;Samples;Min_cycle;Max_cycle;Signal;HPM_P1;HPM_P2
2022/09/20 00:01:05;;;;;;;22.73;21.63;;;;;;;8.76;100.00;101764.72;5015039;28;20515;-49
2022/09/20 00:03:33;;;;;;;22.47;21.50;;;;;;;8.76;100.00;101770.03;5014868;28;20433;-53
2022/09/20 00:06:03;;;;;;;23.00;22.00;;;;;;;8.75;100.00;101772.88;5014731;28;20519;-52
2022/09/20 00:08:31;;;;;;;23.00;21.90;;;;;;;8.73;100.00;101778.31;5015161;28;20487;-49
2022/09/20 00:11:01;;;;;;;23.30;22.10;;;;;;;8.66;100.00;101779.94;5014972;28;20469;-48
2022/09/20 00:13:30;;;;;;;22.47;21.53;;;;;;;8.58;100.00;101777.25;5014915;28;20798;-49
2022/09/20 00:15:57;;;;;;;21.80;20.80;;;;;;;8.48;100.00;101775.72;5014441;28;20519;-49
2022/09/20 00:18:25;;;;;;;23.40;22.17;;;;;;;8.34;100.00;101777.09;5014922;28;20437;-50
2022/09/20 00:20:53;;;;;;;23.13;21.50;;;;;;;8.21;100.00;101784.66;5005047;28;20433;-49
2022/09/20 00:23:22;;;;;;;22.10;21.10;;;;;;;8.11;100.00;101779.44;5014332;28;20974;-53
2022/09/20 00:25:57;;;;;;;22.67;21.67;;;;;;;8.09;100.00;101792.03;5014215;28;20873;-51
2022/09/20 00:28:26;;;;;;;24.37;22.73;;;;;;;8.08;100.00;101789.53;5014541;28;20479;-53
2022/09/20 00:30:55;;;;;;;24.40;22.60;;;;;;;8.12;100.00;101799.66;5014670;28;20476;-51
2022/09/20 00:35:06;;;;;;;24.57;23.37;;;;;;;8.15;100.00;101799.38;5014288;28;20470;-52
2022/09/20 00:36:11;;;;;;;23.90;22.80;;;;;;;8.19;100.00;101800.72;5013979;28;20507;-50
2022/09/20 00:38:41;;;;;;;24.00;22.80;;;;;;;8.25;100.00;101804.59;5014414;28;20483;-49
2022/09/20 00:41:09;;;;;;;24.40;23.10;;;;;;;8.28;100.00;101806.97;5013243;28;20434;-49
2022/09/20 00:43:39;;;;;;;24.90;23.70;;;;;;;8.29;100.00;101809.47;5014299;28;20531;-53
2022/09/20 00:46:19;;;;;;;23.60;22.50;;;;;;;8.30;100.00;101808.47;5013832;28;21048;-48
2022/09/20 00:48:47;;;;;;;23.23;22.00;;;;;;;8.30;100.00;101805.81;5014350;28;20432;-49
2022/09/20 00:51:21;;;;;;;23.50;22.40;;;;;;;8.33;100.00;101805.50;5014344;28;20476;-47
2022/09/20 00:53:51;;;;;;;23.70;22.37;;;;;;;8.34;100.00;101806.34;5014060;28;20479;-52
2022/09/20 00:56:24;;;;;;;24.23;22.90;;;;;;;8.32;100.00;101809.19;5013642;28;20520;-49
2022/09/20 00:58:59;;;;;;;23.93;22.83;;;;;;;8.37;100.00;101815.81;5014163;28;20421;-49
2022/09/20 01:01:26;;;;;;;23.97;22.77;;;;;;;8.39;100.00;101814.72;5014021;28;20456;-47
2022/09/20 01:03:54;;;;;;;23.67;22.57;;;;;;;8.42;100.00;101817.06;5013681;28;20444;-51
2022/09/20 01:06:22;;;;;;;23.07;21.97;;;;;;;8.39;100.00;101805.88;5013336;28;20523;-50
2022/09/20 01:08:53;;;;;;;22.67;21.57;;;;;;;8.38;100.00;101813.03;5013698;28;20954;-50
2022/09/20 01:11:21;;;;;;;24.00;22.60;;;;;;;8.41;100.00;101810.06;5013915;28;20547;-50
2022/09/20 01:13:49;;;;;;;22.77;21.87;;;;;;;8.44;100.00;101819.53;5013537;28;20850;-54
2022/09/20 01:16:18;;;;;;;23.10;22.00;;;;;;;8.47;100.00;101816.56;5013104;28;20519;-52
2022/09/20 01:18:48;;;;;;;23.20;22.10;;;;;;;8.49;100.00;101818.06;5008775;28;21611;-52
2022/09/20 01:21:17;;;;;;;24.10;22.90;;;;;;;8.50;100.00;101811.78;5009835;28;20483;-54
2022/09/20 01:23:56;;;;;;;23.53;22.27;;;;;;;8.49;100.00;101802.13;5013606;28;20437;-52
2022/09/20 01:26:49;;;;;;;23.40;21.90;;;;;;;8.52;100.00;101809.78;5013069;28;20464;-53
2022/09/20 01:29:35;;;;;;;23.30;22.00;;;;;;;8.51;100.00;101805.44;5013394;28;20441;-54
2022/09/20 01:32:10;;;;;;;22.67;21.57;;;;;;;8.49;100.00;101807.44;5013069;28;20531;-49
2022/09/20 01:34:45;;;;;;;22.70;21.50;;;;;;;8.53;100.00;101803.47;5013234;28;20448;-54
2022/09/20 01:37:19;;;;;;;23.13;21.90;;;;;;;8.57;100.00;101809.31;5013237;28;20428;-50
2022/09/20 01:39:57;;;;;;;23.80;22.60;;;;;;;8.56;100.00;101807.66;5013525;28;20441;-52
2022/09/20 01:42:31;;;;;;;23.83;22.33;;;;;;;8.57;100.00;101804.81;5013137;28;20455;-52
2022/09/20 01:45:05;;;;;;;24.53;22.90;;;;;;;8.56;100.00;101807.66;5012768;28;20464;-54
2022/09/20 01:47:39;;;;;;;23.57;21.97;;;;;;;8.54;100.00;101818.44;5013077;28;20474;-54
2022/09/20 01:50:15;;;;;;;23.60;22.17;;;;;;;8.55;100.00;101805.97;5012936;28;20437;-51
2022/09/20 01:53:16;;;;;;;24.07;22.47;;;;;;;8.54;100.00;101810.44;5012730;28;20850;-54
2022/09/20 01:56:26;;;;;;;23.63;22.43;;;;;;;8.57;100.00;101809.31;5012603;28;20469;-53
2022/09/20 01:59:16;;;;;;;23.77;22.30;;;;;;;8.54;100.00;101821.09;5012893;28;20918;-51
2022/09/20 02:02:07;;;;;;;23.87;22.33;;;;;;;8.55;100.00;101819.25;5012848;28;21211;-52
2022/09/20 02:05:05;;;;;;;24.00;22.50;;;;;;;8.57;100.00;101825.28;5012850;28;20421;-51
2022/09/20 02:08:00;;;;;;;25.33;22.73;;;;;;;8.57;100.00;101827.94;5012815;28;20430;-54
2022/09/20 02:10:58;;;;;;;23.40;22.13;;;;;;;8.59;100.00;101826.78;5012645;28;20499;-51
2022/09/20 02:13:30;;;;;;;24.13;22.30;;;;;;;8.60;100.00;101824.97;5012631;28;20437;-54
2022/09/20 02:16:35;;;;;;;25.67;23.80;;;;;;;8.56;100.00;101829.75;5012358;28;20468;-51
2022/09/20 02:19:27;;;;;;;23.40;22.10;;;;;;;8.56;100.00;101835.06;5002921;28;20470;-53
2022/09/20 02:22:09;;;;;;;23.93;22.30;;;;;;;8.59;100.00;101836.59;5003135;28;20476;-51
2022/09/20 02:24:45;;;;;;;23.57;21.90;;;;;;;8.55;100.00;101832.56;5012097;28;20452;-51
2022/09/20 02:27:21;;;;;;;23.33;21.87;;;;;;;8.54;100.00;101831.72;5012385;28;20433;-54
2022/09/20 02:30:03;;;;;;;23.40;22.20;;;;;;;8.51;100.00;101837.34;5012585;28;20855;-54
2022/09/20 02:32:52;;;;;;;23.80;22.50;;;;;;;8.49;100.00;101835.84;5012174;28;20481;-54
2022/09/20 02:35:33;;;;;;;23.67;21.80;;;;;;;8.49;100.00;101835.84;5011956;28;20469;-51
2022/09/20 02:38:10;;;;;;;23.40;22.20;;;;;;;8.48;100.00;101835.03;5012348;28;20911;-47
2022/09/20 02:41:23;;;;;;;25.03;22.70;;;;;;;8.44;100.00;101832.81;5012484;28;20499;-49
2022/09/20 02:43:57;;;;;;;23.10;21.90;;;;;;;8.44;100.00;101836.31;4976922;28;21001;-52
2022/09/20 02:46:32;;;;;;;25.73;23.20;;;;;;;8.44;100.00;101832.81;5011928;28;20944;-54
2022/09/20 02:49:07;;;;;;;23.70;22.30;;;;;;;8.42;100.00;101833.00;5012288;28;20494;-52
2022/09/20 02:51:41;;;;;;;24.83;23.00;;;;;;;8.42;100.00;101838.31;5012050;28;20948;-53
2022/09/20 02:54:22;;;;;;;24.33;22.40;;;;;;;8.41;100.00;101833.97;5011789;28;21020;-53
2022/09/20 02:56:56;;;;;;;23.40;21.97;;;;;;;8.44;100.00;101841.63;5012113;28;20495;-49
2022/09/20 02:59:31;;;;;;;23.97;22.50;;;;;;;8.45;100.00;101835.34;5012169;28;20424;-50
2022/09/20 03:02:08;;;;;;;24.70;22.63;;;;;;;8.48;100.00;101843.00;5011904;28;20445;-52
2022/09/20 03:04:51;;;;;;;24.20;22.63;;;;;;;8.52;100.00;101840.84;5011077;28;20429;-54
2022/09/20 03:07:30;;;;;;;23.37;22.10;;;;;;;8.53;100.00;101843.38;5011858;28;20429;-52
2022/09/20 03:10:12;;;;;;;23.57;21.97;;;;;;;8.53;100.00;101846.03;5011824;28;21008;-50
2022/09/20 03:12:55;;;;;;;24.10;22.23;;;;;;;8.53;100.00;101848.69;5011589;28;20476;-49
2022/09/20 03:15:31;;;;;;;23.60;22.03;;;;;;;8.50;100.00;101851.66;5010706;28;20531;-44
2022/09/20 03:18:08;;;;;;;21.90;20.90;;;;;;;8.47;100.00;101851.13;5010806;28;21087;-44
2022/09/20 03:20:45;;;;;;;22.20;21.10;;;;;;;8.43;100.00;101852.41;4999759;28;20490;-47
2022/09/20 03:23:34;;;;;;;23.47;21.73;;;;;;;8.46;100.00;101852.94;5011407;28;20500;-50
2022/09/20 03:26:11;;;;;;;23.50;21.90;;;;;;;8.44;100.00;101856.75;5011360;28;20472;-47
2022/09/20 03:28:52;;;;;;;23.70;22.10;;;;;;;8.49;100.00;101851.78;5011860;28;20428;-44
2022/09/20 03:31:36;;;;;;;24.90;23.40;;;;;;;8.47;100.00;101851.13;5011457;28;20530;-49
2022/09/20 03:34:16;;;;;;;23.13;21.80;;;;;;;8.37;100.00;101842.41;5011333;28;20437;-49
2022/09/20 03:37:03;;;;;;;23.80;22.40;;;;;;;8.25;100.00;101847.94;5011589;28;20445;-45
2022/09/20 03:40:03;;;;;;;23.53;21.90;;;;;;;8.13;100.00;101846.53;5011589;28;20429;-45
2022/09/20 03:42:31;;;;;;;22.67;21.47;;;;;;;8.01;100.00;101860.19;5011414;28;20472;-45
2022/09/20 03:45:20;;;;;;;23.20;21.90;;;;;;;7.91;100.00;101854.13;5011392;28;20457;-45
2022/09/20 03:48:04;;;;;;;23.03;21.53;;;;;;;7.81;100.00;101864.81;5011782;28;20429;-50
2022/09/20 03:50:42;;;;;;;22.80;21.60;;;;;;;7.74;100.00;101859.28;5011557;28;20496;-49
2022/09/20 03:53:27;;;;;;;23.97;22.37;;;;;;;7.64;100.00;101863.00;5011104;28;20480;-48
2022/09/20 03:56:29;;;;;;;22.90;21.53;;;;;;;7.54;100.00;101868.38;5011167;28;20535;-44
2022/09/20 03:59:14;;;;;;;22.23;21.10;;;;;;;7.46;100.00;101864.78;4996430;28;20594;-51
2022/09/20 04:02:22;;;;;;;22.40;21.00;;;;;;;7.39;100.00;101867.19;5011359;28;20445;-46
2022/09/20 04:04:55;;;;;;;22.50;21.10;;;;;;;7.34;100.00;101868.63;5011045;28;20891;-47
2022/09/20 04:07:32;;;;;;;21.90;20.80;;;;;;;7.29;100.00;101865.59;5011267;28;20433;-47
2022/09/20 04:10:16;;;;;;;22.00;20.70;;;;;;;7.22;100.00;101866.19;5011327;28;20963;-44
2022/09/20 04:12:59;;;;;;;21.97;20.53;;;;;;;7.16;100.00;101858.81;5010960;28;20473;-45
2022/09/20 04:15:35;;;;;;;21.40;20.20;;;;;;;7.11;100.00;101850.44;5012055;28;20519;-49
2022/09/20 04:18:10;;;;;;;21.67;19.87;;;;;;;7.06;100.00;101860.66;5015407;28;20432;-49
2022/09/20 04:20:46;;;;;;;21.03;20.03;;;;;;;7.03;100.00;101860.13;5004042;28;20429;-49
2022/09/20 04:23:29;;;;;;;21.23;19.83;;;;;;;6.99;100.00;101870.19;5014437;28;20502;-46
2022/09/20 04:26:00;;;;;;;22.27;20.67;;;;;;;6.97;100.00;101876.63;5014208;28;20476;-51
2022/09/20 04:28:37;;;;;;;22.60;20.93;;;;;;;6.93;100.00;101872.59;5014743;28;20429;-46
2022/09/20 04:31:17;;;;;;;22.23;20.47;;;;;;;6.92;100.00;101877.06;5014530;28;20495;-48
2022/09/20 04:33:50;;;;;;;22.13;20.53;;;;;;;6.90;100.00;101876.34;5014235;28;20483;-46
2022/09/20 04:36:34;;;;;;;22.03;20.57;;;;;;;6.86;100.00;101875.00;5014039;28;20468;-47
2022/09/20 04:39:20;;;;;;;21.27;20.10;;;;;;;6.83;100.00;101880.59;5014709;28;20486;-46
2022/09/20 04:42:30;;;;;;;20.90;19.90;;;;;;;6.78;100.00;101877.50;5014515;28;20476;-52
2022/09/20 04:45:29;;;;;;;22.30;20.90;;;;;;;6.74;100.00;101886.75;5013754;28;20472;-49
2022/09/20 04:48:38;;;;;;;21.53;20.23;;;;;;;6.69;100.00;101887.16;4982157;28;20512;-51
2022/09/20 04:51:44;;;;;;;21.97;20.83;;;;;;;6.63;100.00;101894.88;5013982;28;20440;-50
2022/09/20 04:54:40;;;;;;;21.30;20.20;;;;;;;6.57;100.00;101893.63;5013688;28;20433;-53
2022/09/20 04:57:27;;;;;;;22.40;21.00;;;;;;;6.54;100.00;101893.91;5013729;28;20437;-51
2022/09/20 05:00:05;;;;;;;23.07;21.70;;;;;;;6.54;100.00;101901.03;5014180;28;20495;-46
2022/09/20 05:03:06;;;;;;;23.63;22.00;;;;;;;6.48;100.00;101897.13;5013630;28;20441;-51
2022/09/20 05:05:57;;;;;;;22.60;21.47;;;;;;;6.44;100.00;101897.56;5013382;28;20987;-53
2022/09/20 05:08:55;;;;;;;22.47;21.37;;;;;;;6.44;100.00;101902.84;5013868;28;20433;-48
2022/09/20 05:12:00;;;;;;;21.77;20.67;;;;;;;6.42;100.00;101899.53;5013691;28;20515;-51
2022/09/20 05:15:04;;;;;;;22.10;20.80;;;;;;;6.42;100.00;101904.81;5011617;28;20487;-50
2022/09/20 05:18:02;;;;;;;22.23;20.97;;;;;;;6.41;100.00;101917.22;5013821;28;20919;-53
2022/09/20 05:20:46;;;;;;;21.40;20.37;;;;;;;6.41;100.00;101903.13;5002983;28;20440;-45
2022/09/20 05:23:39;;;;;;;22.70;21.10;;;;;;;6.41;100.00;101911.94;5013340;28;20449;-50
2022/09/20 05:26:12;;;;;;;22.57;21.23;;;;;;;6.44;100.00;101911.66;5012556;28;20557;-53
2022/09/20 05:28:49;;;;;;;22.07;21.00;;;;;;;6.46;100.00;101909.69;5013323;28;20430;-50
2022/09/20 05:31:24;;;;;;;22.13;21.13;;;;;;;6.52;100.00;101910.94;5013280;28;20457;-46
2022/09/20 05:34:00;;;;;;;21.83;20.77;;;;;;;6.63;100.00;101916.09;5013291;28;20901;-51
2022/09/20 05:36:39;;;;;;;22.17;20.87;;;;;;;7.04;100.00;101915.69;5013164;28;20468;-53
2022/09/20 05:39:21;;;;;;;21.77;20.67;;;;;;;7.67;100.00;101916.66;5013407;28;20433;-49
2022/09/20 05:41:56;;;;;;;21.97;20.57;;;;;;;8.35;100.00;101919.66;5013299;28;20516;-52
2022/09/20 05:44:31;;;;;;;22.60;20.90;;;;;;;9.02;100.00;101921.59;5012494;28;20472;-51
2022/09/20 05:47:11;;;;;;;22.27;21.00;;;;;;;9.60;100.00;101926.19;5013092;28;20433;-52
2022/09/20 05:49:55;;;;;;;23.33;22.00;;;;;;;10.21;100.00;101915.22;5013360;28;20482;-52
2022/09/20 05:52:36;;;;;;;23.07;21.67;;;;;;;10.80;100.00;101928.19;5012794;28;20449;-54
2022/09/20 05:55:28;;;;;;;23.80;22.30;;;;;;;11.37;100.00;101933.38;5012546;28;20469;-54
2022/09/20 05:58:20;;;;;;;23.47;22.10;;;;;;;11.98;100.00;101935.25;5013092;28;20430;-54
2022/09/20 06:00:52;;;;;;;24.33;23.03;;;;;;;12.50;100.00;101925.50;5012903;28;20440;-51
2022/09/20 06:03:30;;;;;;;24.30;22.90;;;;;;;13.03;100.00;101937.03;5012651;28;20504;-53
2022/09/20 06:06:06;;;;;;;23.10;21.70;;;;;;;13.49;100.00;101935.88;5012202;28;20472;-52
2022/09/20 06:09:08;;;;;;;23.30;21.67;;;;;;;13.91;100.00;101937.84;5012918;28;20846;-52
2022/09/20 06:11:50;;;;;;;21.83;20.80;;;;;;;14.46;100.00;101941.69;5011062;28;20456;-51
2022/09/20 06:14:31;;;;;;;23.23;21.97;;;;;;;14.83;100.00;101942.25;5011827;28;20823;-49
2022/09/20 06:17:07;;;;;;;22.10;21.00;;;;;;;15.38;100.00;101943.22;5012648;28;20436;-50
2022/09/20 06:19:40;;;;;;;22.10;21.00;;;;;;;15.79;100.00;101949.44;5002001;28;20479;-47
2022/09/20 06:22:16;;;;;;;21.90;20.90;;;;;;;16.19;100.00;101942.28;5012202;28;20445;-52
2022/09/20 06:24:48;;;;;;;20.60;19.73;;;;;;;16.40;100.00;101941.25;5012026;28;20519;-47
2022/09/20 06:27:21;;;;;;;20.30;19.40;;;;;;;16.76;100.00;101941.72;5012538;28;20511;-51
2022/09/20 06:29:53;;;;;;;19.97;18.87;;;;;;;17.02;100.00;101938.19;5012520;28;20488;-49
2022/09/20 06:32:20;;;;;;;21.20;20.00;;;;;;;17.20;100.00;101937.53;5011891;28;20989;-55
2022/09/20 06:34:49;;;;;;;20.20;19.00;;;;;;;17.34;96.40;101947.22;5011869;28;20476;-51
2022/09/20 06:43:20;;;;;;;22.17;20.97;;;;;;;17.72;83.28;101950.03;5011811;28;20448;-49
2022/09/20 06:45:47;;;;;;;21.47;20.47;;;;;;;17.95;87.70;101953.84;5011782;28;20472;-46
2022/09/20 06:48:15;;;;;;;20.20;19.20;;;;;;;18.07;86.43;101956.72;5012315;28;20499;-47
2022/09/20 06:50:44;;;;;;;19.60;18.90;;;;;;;18.08;85.65;101952.97;5012139;28;20432;-48
2022/09/20 06:53:17;;;;;;;19.50;18.60;;;;;;;18.14;85.71;101958.31;5011787;28;20483;-46
2022/09/20 06:55:46;;;;;;;20.27;19.20;;;;;;;18.05;83.87;101956.09;5011715;28;20453;-46
2022/09/20 06:58:14;;;;;;;20.03;18.87;;;;;;;17.97;83.92;101967.97;5011901;28;20494;-46
2022/09/20 07:00:41;;;;;;;19.33;18.53;;;;;;;17.84;83.55;101961.78;5012032;28;20436;-52
2022/09/20 07:03:11;;;;;;;20.60;19.43;;;;;;;17.54;80.23;101961.47;5011844;28;20829;-51
2022/09/20 07:05:39;;;;;;;21.07;19.67;;;;;;;17.27;81.58;101974.19;5011518;28;20465;-48
2022/09/20 07:08:07;;;;;;;19.80;18.90;;;;;;;16.96;80.29;101971.38;5011845;28;20433;-46
2022/09/20 07:10:36;;;;;;;20.83;19.70;;;;;;;16.68;80.42;101976.97;5011704;28;20460;-44
2022/09/20 07:13:03;;;;;;;20.57;19.43;;;;;;;16.42;82.04;101975.06;5011615;28;20873;-47
2022/09/20 07:15:32;;;;;;;20.53;19.47;;;;;;;16.26;84.37;101985.34;5011424;28;20519;-45
2022/09/20 07:18:00;;;;;;;21.23;20.13;;;;;;;15.96;84.64;101971.41;5011912;28;20428;-44
2022/09/20 07:20:28;;;;;;;21.63;20.20;;;;;;;15.71;85.62;101981.84;5001078;28;20429;-45
2022/09/20 07:22:56;;;;;;;22.73;21.23;;;;;;;15.56;86.76;101985.72;5011244;28;20448;-47
2022/09/20 07:25:23;;;;;;;22.40;20.73;;;;;;;15.46;87.16;101986.88;5011468;28;20519;-49
2022/09/20 07:27:52;;;;;;;22.43;21.03;;;;;;;15.50;90.62;101985.47;5011868;28;20848;-48
2022/09/20 07:30:20;;;;;;;22.53;20.80;;;;;;;15.47;88.56;101982.38;5011756;28;20853;-49
2022/09/20 07:32:49;;;;;;;22.17;20.40;;;;;;;15.73;94.32;101989.75;5011249;28;20510;-51
2022/09/20 07:35:16;;;;;;;20.50;19.50;;;;;;;16.05;98.16;101997.09;5011262;28;20465;-51
2022/09/20 07:37:44;;;;;;;20.87;19.80;;;;;;;16.42;100.00;101993.91;5011526;28;20437;-46
2022/09/20 07:40:13;;;;;;;20.70;19.70;;;;;;;16.76;100.00;101990.22;5011557;28;20996;-49
2022/09/20 07:42:41;;;;;;;21.13;19.80;;;;;;;16.95;97.50;101991.25;5011367;28;20491;-45
2022/09/20 07:45:12;;;;;;;20.77;19.10;;;;;;;17.17;95.95;101997.25;5011040;28;20473;-46
2022/09/20 07:47:40;;;;;;;20.53;19.43;;;;;;;17.24;90.95;101992.66;5011575;28;20532;-44
2022/09/20 07:50:10;;;;;;;21.53;20.30;;;;;;;17.24;87.55;101998.06;5013910;28;20432;-52
2022/09/20 07:52:38;;;;;;;21.50;20.27;;;;;;;17.19;85.33;101995.16;5015180;28;20457;-45
2022/09/20 07:55:06;;;;;;;20.97;19.77;;;;;;;17.10;83.35;101987.31;5014844;28;20469;-47
2022/09/20 07:57:36;;;;;;;21.93;20.73;;;;;;;16.96;81.57;101985.66;5015194;28;20436;-44
2022/09/20 08:00:06;;;;;;;21.87;20.70;;;;;;;16.90;83.94;101994.59;5015223;28;20452;-45
2022/09/20 08:02:35;;;;;;;23.60;22.20;;;;;;;16.80;84.01;101986.06;5014724;28;20495;-47
2022/09/20 08:05:04;;;;;;;22.70;21.30;;;;;;;16.71;83.63;101994.56;5014744;28;20465;-45
2022/09/20 08:07:32;;;;;;;22.37;20.93;;;;;;;16.42;77.05;101993.06;5015102;28;20575;-47
2022/09/20 08:09:59;;;;;;;22.60;21.10;;;;;;;16.30;79.12;101997.38;5014834;28;20966;-50
2022/09/20 08:12:27;;;;;;;22.33;20.97;;;;;;;16.26;80.71;102004.19;5014587;28;20483;-54
2022/09/20 08:15:15;;;;;;;21.37;20.23;;;;;;;16.12;79.16;102002.50;5014139;28;20566;-47
2022/09/20 08:17:47;;;;;;;21.93;20.73;;;;;;;16.11;80.27;102006.22;5014904;28;20479;-50
2022/09/20 08:20:14;;;;;;;23.73;21.77;;;;;;;16.08;79.98;102002.06;5004130;28;20515;-54
2022/09/20 08:22:43;;;;;;;22.03;20.63;;;;;;;15.80;73.83;102006.75;5014258;28;20453;-48
2022/09/20 08:25:19;;;;;;;21.20;19.63;;;;;;;15.57;72.96;102008.88;5014352;28;20465;-53
2022/09/20 08:27:52;;;;;;;21.10;19.73;;;;;;;15.42;74.05;102017.03;5014754;28;20433;-47
2022/09/20 08:30:20;;;;;;;19.73;18.63;;;;;;;15.40;73.95;102013.72;5014590;28;20503;-51
2022/09/20 08:32:55;;;;;;;19.33;17.77;;;;;;;14.89;71.20;102021.19;5014123;28;20905;-48
2022/09/20 08:35:24;;;;;;;18.33;17.23;;;;;;;14.83;72.98;102020.13;5014149;28;20886;-47
2022/09/20 08:37:54;;;;;;;17.77;16.80;;;;;;;14.75;72.84;102030.16;5014269;28;20464;-50
2022/09/20 08:40:24;;;;;;;16.73;15.50;;;;;;;14.78;74.29;102035.16;5014290;28;20950;-48
2022/09/20 08:42:53;;;;;;;15.63;14.30;;;;;;;14.86;73.42;102037.69;5013794;28;20460;-49
2022/09/20 08:45:25;;;;;;;13.90;13.30;;;;;;;14.81;73.53;102042.81;5013942;28;20480;-49
2022/09/20 08:48:15;;;;;;;16.60;12.10;;;;;;;14.69;70.91;102045.19;5014299;28;20491;-46
2022/09/20 08:50:43;;;;;;;11.73;10.77;;;;;;;14.42;73.08;102045.94;5014046;28;20436;-45
2022/09/20 08:53:14;;;;;;;12.30;11.40;;;;;;;14.63;73.42;102045.97;5013801;28;20456;-47
2022/09/20 08:55:48;;;;;;;11.57;10.60;;;;;;;14.69;72.79;102045.19;5013537;28;20552;-49
2022/09/20 08:58:18;;;;;;;11.80;10.90;;;;;;;14.88;74.44;102039.16;5013855;28;20456;-50
2022/09/20 09:00:46;;;;;;;12.97;11.63;;;;;;;15.17;76.45;102037.34;5013191;28;20441;-47
2022/09/20 09:03:17;;;;;;;11.10;10.20;;;;;;;14.87;74.02;102039.38;5013560;28;21040;-48
2022/09/20 09:05:46;;;;;;;11.43;10.60;;;;;;;15.04;74.74;102037.22;5013550;28;20458;-48
2022/09/20 09:08:17;;;;;;;11.80;10.63;;;;;;;15.07;72.24;102045.72;5013795;28;20441;-47
2022/09/20 09:10:51;;;;;;;11.00;10.20;;;;;;;15.09;71.05;102035.63;5013845;28;20433;-46
2022/09/20 09:13:25;;;;;;;12.33;11.30;;;;;;;15.04;72.63;102042.59;5013446;28;20882;-49
2022/09/20 09:15:56;;;;;;;12.20;11.10;;;;;;;14.96;69.68;102039.00;5013116;28;20477;-49
2022/09/20 09:18:32;;;;;;;12.53;10.53;;;;;;;15.00;71.50;102046.69;5013682;28;20855;-46
2022/09/20 09:21:02;;;;;;;11.13;10.13;;;;;;;15.11;70.43;102046.19;5005445;28;20849;-48
2022/09/20 09:23:36;;;;;;;11.33;10.43;;;;;;;15.23;69.76;102039.25;5013406;28;20425;-48
2022/09/20 09:26:05;;;;;;;11.07;10.23;;;;;;;15.18;70.79;102047.03;5013049;28;20531;-44
2022/09/20 09:28:35;;;;;;;11.67;10.50;;;;;;;15.17;69.26;102053.47;5013591;28;20858;-49
2022/09/20 09:31:20;;;;;;;11.27;10.17;;;;;;;15.21;67.58;102055.56;5013316;28;20495;-45
2022/09/20 09:33:49;;;;;;;11.67;10.97;;;;;;;15.40;69.18;102052.19;5013176;28;20432;-48
2022/09/20 09:36:22;;;;;;;10.70;10.30;;;;;;;15.69;68.71;102051.16;5013227;28;20527;-49
2022/09/20 09:38:50;;;;;;;13.60;10.00;;;;;;;15.88;68.74;102053.13;5013271;28;20429;-47
2022/09/20 09:41:25;;;;;;;11.17;10.37;;;;;;;16.06;66.54;102049.91;5013209;28;20437;-50
2022/09/20 09:44:01;;;;;;;11.40;10.50;;;;;;;16.03;66.24;102061.91;5013049;28;20490;-53
2022/09/20 09:46:31;;;;;;;10.43;9.83;;;;;;;15.86;65.33;102057.84;5012783;28;20484;-56
2022/09/20 09:49:12;;;;;;;10.73;10.03;;;;;;;15.98;67.88;102058.13;5012904;28;20425;-55
2022/09/20 09:51:42;;;;;;;10.13;9.00;;;;;;;15.99;65.57;102055.25;5013150;28;20457;-54
2022/09/20 09:54:16;;;;;;;11.17;9.67;;;;;;;15.93;64.79;102058.72;5012910;28;20461;-56
2022/09/20 09:56:56;;;;;;;10.50;9.27;;;;;;;15.95;64.52;102061.22;5012473;28;20453;-47
2022/09/20 09:59:40;;;;;;;9.97;9.10;;;;;;;16.00;67.04;102054.22;5012594;28;20507;-48
2022/09/20 10:02:22;;;;;;;9.97;9.30;;;;;;;15.86;65.24;102049.78;5012713;28;20456;-48
2022/09/20 10:05:00;;;;;;;9.90;9.40;;;;;;;16.10;66.16;102055.72;5012282;28;20461;-55
2022/09/20 10:07:36;;;;;;;9.37;8.60;;;;;;;16.11;61.57;102058.19;5012819;28;20429;-49
2022/09/20 10:10:12;;;;;;;13.23;10.30;;;;;;;16.05;62.39;102050.91;5012927;28;20479;-50
2022/09/20 10:12:54;;;;;;;9.83;9.13;;;;;;;16.01;62.41;102057.72;5012439;28;20453;-47
2022/09/20 10:15:30;;;;;;;12.20;9.17;;;;;;;16.10;61.14;102050.31;5012096;28;20890;-50
2022/09/20 10:18:12;;;;;;;10.07;9.20;;;;;;;16.20;61.49;102056.97;5035168;23;20484;-40
2022/09/20 10:21:03;;;;;;;10.03;9.10;;;;;;;16.48;64.37;102057.69;5015561;28;20448;-41
2022/09/20 10:23:51;;;;;;;10.10;9.30;;;;;;;16.78;60.27;102066.28;5012513;28;20428;-45
2022/09/20 10:26:42;;;;;;;9.63;8.77;;;;;;;16.61;60.41;102066.88;5011988;28;20500;-41
2022/09/20 10:29:23;;;;;;;10.47;8.70;;;;;;;16.45;61.54;102055.41;5012489;28;20429;-41
2022/09/20 10:31:57;;;;;;;9.00;8.20;;;;;;;16.48;62.52;102065.78;5012569;28;20433;-41
2022/09/20 10:34:46;;;;;;;9.60;8.70;;;;;;;16.63;62.19;102059.41;5011720;28;20424;-42
2022/09/20 10:37:21;;;;;;;9.30;8.53;;;;;;;16.70;59.77;102061.06;5012531;28;20568;-41
2022/09/20 10:39:58;;;;;;;8.73;7.90;;;;;;;16.76;58.22;102054.88;5012523;28;20468;-41
2022/09/20 10:45:31;;;;;;;9.10;8.30;;;;;;;16.43;56.69;102067.41;5011979;28;20465;-41
2022/09/20 10:48:26;;;;;;;8.50;7.80;;;;;;;16.64;62.18;102067.28;5012248;28;20535;-43
2022/09/20 10:50:59;;;;;;;7.57;7.27;;;;;;;16.98;58.12;102059.03;5012067;28;21004;-43
2022/09/20 10:53:38;;;;;;;9.30;8.50;;;;;;;17.00;57.53;102062.34;5011704;28;20432;-41
2022/09/20 10:56:17;;;;;;;8.50;7.90;;;;;;;16.89;57.04;102070.22;5011594;28;21003;-43
2022/09/20 10:59:23;;;;;;;8.00;7.50;;;;;;;16.94;59.54;102062.34;5011985;28;20930;-41
2022/09/20 11:02:07;;;;;;;9.30;8.33;;;;;;;17.10;60.18;102062.78;5011822;28;20428;-43
2022/09/20 11:04:48;;;;;;;7.80;7.00;;;;;;;17.33;60.29;102072.28;5011499;28;20487;-41
2022/09/20 11:07:19;;;;;;;9.50;8.03;;;;;;;17.66;60.88;102073.09;5012039;28;20519;-41
2022/09/20 11:09:51;;;;;;;13.50;8.03;;;;;;;17.87;60.13;102074.72;5011880;28;20448;-41
2022/09/20 11:12:26;;;;;;;8.87;8.03;;;;;;;18.06;60.39;102069.25;5011570;28;20838;-43
2022/09/20 11:14:59;;;;;;;9.03;7.63;;;;;;;18.22;57.97;102079.56;5011377;28;20498;-42
2022/09/20 11:17:31;;;;;;;10.13;7.23;;;;;;;18.03;57.87;102075.09;5011676;28;20461;-44
2022/09/20 11:20:05;;;;;;;10.53;7.90;;;;;;;17.68;55.93;102077.25;5000823;28;20432;-45
2022/09/20 11:22:40;;;;;;;10.77;7.67;;;;;;;17.48;56.14;102081.00;5011384;28;20461;-41
2022/09/20 11:25:16;;;;;;;7.87;7.23;;;;;;;17.50;57.36;102087.03;5014167;28;20514;-44
2022/09/20 11:27:53;;;;;;;8.23;7.40;;;;;;;17.39;55.93;102083.06;5015893;28;20544;-42
2022/09/20 11:30:22;;;;;;;7.50;7.10;;;;;;;17.68;58.94;102088.03;5015956;28;20432;-41
2022/09/20 11:32:54;;;;;;;8.17;6.80;;;;;;;17.82;55.58;102091.56;5015505;28;20519;-43
2022/09/20 11:35:29;;;;;;;8.10;6.80;;;;;;;17.82;53.63;102088.84;5014953;28;20476;-44
2022/09/20 11:38:03;;;;;;;7.90;7.30;;;;;;;18.20;55.05;102087.06;5015835;28;20452;-41
2022/09/20 11:40:35;;;;;;;7.13;6.43;;;;;;;18.56;54.37;102091.06;5015658;28;20447;-42
2022/09/20 11:43:06;;;;;;;6.60;6.10;;;;;;;18.78;56.89;102092.41;5015340;28;20433;-41
2022/09/20 11:45:38;;;;;;;7.23;6.40;;;;;;;19.01;56.22;102087.22;5015030;28;20503;-42
2022/09/20 11:48:14;;;;;;;7.10;6.63;;;;;;;18.95;51.00;102088.13;5015294;28;20544;-43
2022/09/20 11:51:01;;;;;;;7.40;6.90;;;;;;;18.70;51.81;102082.66;5015595;28;20436;-41
2022/09/20 11:53:42;;;;;;;7.87;6.73;;;;;;;18.44;55.56;102095.47;5015283;28;20468;-44
2022/09/20 11:56:18;;;;;;;6.23;5.73;;;;;;;18.58;57.06;102080.84;5014593;28;20472;-42
2022/09/20 11:58:48;;;;;;;6.20;5.80;;;;;;;18.39;55.51;102089.88;5015288;28;20432;-41
2022/09/20 12:01:24;;;;;;;6.73;6.20;;;;;;;18.64;55.98;102094.34;5015323;28;20486;-42
2022/09/20 12:03:57;;;;;;;6.17;5.67;;;;;;;18.47;55.70;102081.53;5015044;28;20440;-40
2022/09/20 12:06:46;;;;;;;6.10;5.50;;;;;;;18.61;56.74;102094.78;5014740;28;20507;-44